Latest Coastal Weather Observations for East Sale

IDV60701

Issued at 6:15 am EST Sunday 31 August 2014 (issued every 10 minutes, with the page automatically refreshed every 10 minutes)

About coastal observations | Map of coastal stations | Coastal observations for VIC | Marine services | Other Formats
Station Details ID: 085072 Name: EAST SALE AIRPORT Lat: -38.12 Lon: 147.13 Height: 4.6 m
Data from the previous 72 hours. | See also: Recent months at East Sale
Date/Time
EST
Temp

°C
Wind Pressure Rain
since 9am
mm
Weather Cloud Vis
km
Sea
Height
m
Swell
Dir
 
Speed
knots
Gust
knots
hPa Trend Height
m
Period
s
Dir
31/06:00am 3.6 NW 6 7 1020.1 - 0.0 - Cloudy 1 - - - -
31/05:30am 4.0 NW 5 7 1019.9 - 0.0 - Cloudy 0.1 - - - -
31/05:00am 4.4 NW 4 5 1019.8 - 0.0 - Cloudy 0.5 - - - -
31/04:30am 4.6 NNW 4 5 1019.8 - 0.0 - Cloudy 0.1 - - - -
31/04:00am 4.5 NW 3 4 1019.8 - 0.0 - Cloudy 0.1 - - - -
31/03:30am 4.4 W 3 4 1020.1 - 0.0 - Cloudy 0.1 - - - -
31/03:00am 5.1 W 4 5 1020.3 - 0.0 - Cloudy 0.2 - - - -
31/02:30am 4.5 W 5 6 1020.6 - 0.0 - Cloudy 0.2 - - - -
31/02:00am 4.4 NW 6 7 1020.9 - 0.0 - Cloudy 0.1 - - - -
31/01:30am 5.1 NW 6 6 1021.4 - 0.0 - Cloudy 1 - - - -
31/01:00am 5.8 NW 5 6 1021.8 - 0.0 - Cloudy 0.1 - - - -
31/12:30am 5.3 NW 6 6 1022.3 - 0.0 - Cloudy 0.1 - - - -
31/12:00am 5.7 NNW 4 5 1022.5 - 0.0 - Cloudy 0.1 - - - -
 
Date/Time
EST
Temp

°C
Wind Pressure Rain
since 9am
mm
Weather Cloud Vis
km
Sea
Height
m
Swell
Dir
 
Speed
knots
Gust
knots
hPa Trend Height
m
Period
s
Dir
30/11:30pm 5.1 CALM 0 0 1022.8 - 0.0 - Partly cloudy 6 - - - -
30/11:19pm 6.5 S 1 3 1022.9 - 0.0 - Partly cloudy 1 - - - -
30/11:00pm 6.4 S 3 4 1023.0 - 0.0 - - 1 - - - -
30/10:30pm 7.4 SSW 4 5 1023.0 - 0.0 - - 5 - - - -
30/10:12pm 7.7 CALM 0 4 1023.2 - 0.0 - - 5 - - - -
30/10:00pm 7.1 CALM 0 0 1023.3 - 0.0 - - 10 - - - -
30/09:42pm 6.9 CALM 0 0 1023.4 - 0.0 - - 10 - - - -
30/09:30pm 7.4 CALM 0 0 1023.4 - 0.0 - - 6 - - - -
30/09:29pm 7.4 CALM 0 0 1023.4 - 0.0 - - 6 - - - -
30/09:00pm 7.4 CALM 0 0 1023.6 - 0.0 - - 10 - - - -
30/08:49pm 7.9 CALM 0 0 1023.7 - 0.0 - - 10 - - - -
30/08:31pm 8.7 CALM 0 0 1023.6 - 0.0 - - 5 - - - -
30/08:30pm 8.8 CALM 0 0 1023.6 - 0.0 - - 7 - - - -
30/08:00pm 8.9 ENE 3 4 1023.6 - 0.0 - - 10 - - - -
30/07:30pm 10.2 E 6 7 1023.7 - 0.0 - - 10 - - - -
30/07:00pm 10.2 E 7 8 1023.8 - 0.0 - - 10 - - - -
30/06:30pm 10.8 E 8 10 1023.8 - 0.0 - - 10 - - - -
30/06:00pm 11.7 E 8 11 1023.8 - 0.0 - - 10 - - - -
30/05:30pm 12.9 E 11 14 1023.7 - 0.0 - - 10 - - - -
30/05:00pm 13.8 E 14 17 1023.5 - 0.0 - - 10 - - - -
30/04:30pm 14.4 E 14 17 1023.6 - 0.0 - - 10 - - - -
30/04:00pm 14.9 E 14 17 1023.5 - 0.0 - - 10 - - - -
30/03:30pm 15.4 E 15 19 1023.6 - 0.0 - - 10 - - - -
30/03:00pm 15.4 E 15 18 1023.7 F 0.0 Haze Clear 25 - - - -
30/02:30pm 15.7 E 16 20 1023.9 - 0.0 - - 10 - - - -
30/02:00pm 15.6 E 16 19 1024.2 - 0.0 - - 10 - - - -
30/01:30pm 15.5 E 15 19 1024.5 - 0.0 - - 10 - - - -
30/01:00pm 15.5 E 15 18 1025.1 - 0.0 - - 10 - - - -
30/12:30pm 15.1 E 15 18 1025.7 - 0.0 - - 10 - - - -
30/12:00pm 14.9 E 12 16 1026.2 - 0.0 - - 10 - - - -
30/11:30am 13.9 E 11 15 1026.8 - 0.0 - - 10 - - - -
30/11:00am 12.7 E 10 11 1027.4 - 0.0 - - 10 - - - -
30/10:30am 10.7 SE 5 7 1027.9 - 0.0 - - 10 - - - -
30/10:00am 9.4 ESE 3 5 1028.3 - 0.0 - - 10 - - - -
30/09:30am 8.5 SSE 1 4 1028.6 - 0.0 - - 10 - - - -
30/09:00am 7.7 CALM 0 0 1028.8 F 0.2 Distant fog Partly cloudy 15 - - - -
30/08:48am 7.1 CALM 0 2 1028.8 - 0.2 - Partly cloudy 10 - - - -
30/08:30am 6.9 CALM 0 3 1028.8 - 0.2 - Partly cloudy 10 - - - -
30/08:24am 5.9 CALM 0 0 1028.8 - 0.2 - Partly cloudy 10 - - - -
30/08:00am 5.0 CALM 0 0 1028.8 - 0.2 - Cloudy 2 - - - -
30/07:30am 5.1 CALM 0 0 1028.8 - 0.2 - Cloudy 0.2 - - - -
30/07:00am 4.8 CALM 0 0 1028.7 - 0.2 - Cloudy 0.2 - - - -
30/06:30am 4.7 CALM 0 2 1028.6 - 0.2 - Cloudy 0.2 - - - -
30/06:00am 5.0 N 2 3 1028.3 - 0.2 - Cloudy 0.1 - - - -
30/05:30am 5.7 N 3 3 1028.5 - 0.2 - Cloudy 0.1 - - - -
30/05:00am 6.1 NW 1 3 1028.5 - 0.2 - Cloudy 0.1 - - - -
30/04:30am 6.1 CALM 0 0 1028.5 - 0.0 - Cloudy 0.1 - - - -
30/04:00am 6.4 CALM 0 0 1028.5 - 0.0 - Cloudy 0.1 - - - -
30/03:30am 6.8 WNW 1 3 1028.6 - 0.0 - Cloudy 0.1 - - - -
30/03:00am 6.8 WNW 4 5 1028.8 - 0.0 - Cloudy 0.2 - - - -
30/02:30am 6.8 NNW 4 4 1028.9 - 0.0 - Cloudy 0.1 - - - -
30/02:00am 6.9 NNW 5 5 1029.0 - 0.0 - Cloudy 0.1 - - - -
30/01:30am 7.5 NW 6 6 1029.0 - 0.0 - Cloudy 0.1 - - - -
30/01:00am 9.5 NNW 5 6 1029.2 - 0.0 - Cloudy 0.1 - - - -
30/12:30am 9.5 E 4 6 1029.2 - 0.0 - Cloudy 0.1 - - - -
30/12:00am 9.5 E 5 6 1029.2 - 0.0 - Cloudy 0 - - - -
 
Date/Time
EST
Temp

°C
Wind Pressure Rain
since 9am
mm
Weather Cloud Vis
km
Sea
Height
m
Swell
Dir
 
Speed
knots
Gust
knots
hPa Trend Height
m
Period
s
Dir
29/11:30pm 9.3 E 4 5 1029.3 - 0.0 - Cloudy 0.1 - - - -
29/11:00pm 9.6 E 4 6 1029.3 - 0.0 - Cloudy 0.1 - - - -
29/10:30pm 9.7 CALM 0 0 1029.4 - 0.0 - Cloudy 0.1 - - - -
29/10:00pm 9.1 CALM 0 0 1029.5 - 0.0 - Cloudy 0.1 - - - -
29/09:30pm 9.0 ENE 1 4 1029.4 - 0.0 - Cloudy 0.1 - - - -
29/09:00pm 9.8 E 4 5 1029.3 - 0.0 - Cloudy 0.2 - - - -
29/08:30pm 10.1 ENE 6 8 1029.3 - 0.0 - Cloudy 0.5 - - - -
29/08:17pm 10.0 E 6 8 1029.2 - 0.0 - Cloudy 5 - - - -
29/08:00pm 10.1 E 7 9 1029.2 - 0.0 - Cloudy 10 - - - -
29/07:55pm 10.0 E 7 9 1029.2 - 0.0 - Cloudy 10 - - - -
29/07:30pm 10.1 E 7 9 1029.0 - 0.0 - Cloudy 1 - - - -
29/07:00pm 10.2 E 8 10 1028.8 - 0.0 - Cloudy 0.8 - - - -
29/06:30pm 10.5 E 8 10 1028.7 - 0.0 - Cloudy 2 - - - -
29/06:26pm 10.5 E 7 10 1028.7 - 0.0 - Cloudy 6 - - - -
29/06:00pm 10.4 E 6 8 1028.4 - 0.0 - Cloudy 10 - - - -
29/05:30pm 11.0 ESE 6 8 1028.3 - 0.0 - Partly cloudy 10 - - - -
29/05:22pm 11.3 ESE 7 9 1028.3 - 0.0 - Partly cloudy 10 - - - -
29/05:00pm 11.9 ESE 10 11 1028.2 - 0.0 - Partly cloudy 10 - - - -
29/04:30pm 13.1 ESE 12 15 1028.0 - 0.0 - - 10 - - - -
29/04:00pm 14.7 ESE 11 13 1027.7 - 0.0 - - 10 - - - -
29/03:30pm 15.1 E 12 13 1027.6 - 0.0 - - 10 - - - -
29/03:00pm 16.0 E 10 12 1027.6 F 0.0 Fine Mostly clear 30 - - - -
29/02:30pm 15.8 E 9 11 1027.8 - 0.0 - Mostly clear 10 - - - -
29/02:00pm 15.3 E 8 11 1028.0 - 0.0 - Mostly clear 10 - - - -
29/01:30pm 15.7 E 7 9 1028.2 - 0.0 - Mostly clear 10 - - - -
29/01:00pm 15.3 ESE 5 8 1028.4 - 0.0 - Mostly clear 10 - - - -
29/12:30pm 14.6 ESE 4 7 1028.9 - 0.0 - Mostly clear 10 - - - -
29/12:00pm 13.8 SSE 5 6 1029.1 - 0.0 - Cloudy 10 - - - -
29/11:30am 13.3 S 5 7 1029.5 - 0.0 - Partly cloudy 10 - - - -
29/11:17am 12.8 S 4 6 1029.6 - 0.0 - Partly cloudy 10 - - - -
29/11:00am 13.2 SSW 1 4 1029.5 - 0.0 - Partly cloudy 10 - - - -
29/10:30am 11.7 SW 4 5 1029.7 - 0.0 - - 10 - - - -
29/10:00am 10.0 W 6 7 1029.9 - 0.0 - Mostly clear 10 - - - -
29/09:30am 8.2 W 5 7 1030.0 - 0.0 - Mostly clear 10 - - - -
29/09:19am 7.6 W 6 7 1029.9 - 0.0 Fog patches Mostly clear 2 - - - -
29/09:00am 6.8 W 6 7 1029.9 R 0.2 Fog patches Partly cloudy 3 - - - -
29/08:30am 5.6 WNW 5 6 1029.6 - 0.2 Fog Cloudy 0.5 - - - -
29/08:00am 4.8 NW 5 6 1029.6 - 0.2 Fog Cloudy 0.3 - - - -
29/07:30am 4.8 NW 5 6 1029.3 - 0.2 Fog Cloudy 0.4 - - - -
29/07:00am 4.4 NW 5 6 1029.0 - 0.2 Fog Cloudy 0.2 - - - -
29/06:30am 4.9 NNW 4 5 1028.8 - 0.2 - Cloudy 0.1 - - - -
29/06:00am 5.4 WNW 5 6 1028.7 - 0.2 - Cloudy 0.2 - - - -
29/05:30am 5.8 NW 5 5 1028.6 - 0.2 - Cloudy 0.1 - - - -
29/05:00am 5.7 NNW 3 4 1028.5 - 0.2 - Cloudy 0.1 - - - -
29/04:30am 5.6 NW 4 5 1028.5 - 0.0 - Cloudy 0.1 - - - -
29/04:00am 5.4 NW 3 4 1028.4 - 0.0 - Cloudy 0.1 - - - -
29/03:30am 5.6 WNW 4 5 1028.3 - 0.0 - Cloudy 0.5 - - - -
29/03:00am 5.3 NNW 3 4 1028.2 - 0.0 - Cloudy 0.3 - - - -
29/02:30am 5.8 W 4 5 1028.3 - 0.0 - Cloudy 0.3 - - - -
29/02:00am 5.7 WNW 4 5 1028.4 - 0.0 - Cloudy 0.2 - - - -
29/01:30am 5.7 NW 5 7 1028.6 - 0.0 - Cloudy 0.3 - - - -
29/01:00am 5.7 NW 5 6 1028.8 - 0.0 - Cloudy 0.1 - - - -
29/12:30am 4.6 NNW 4 6 1028.7 - 0.0 - Cloudy 0.1 - - - -
29/12:04am 5.9 WNW 1 5 1028.8 - 0.0 - Partly cloudy 6 - - - -
29/12:00am 5.6 CALM 0 1 1028.8 - 0.0 - Cloudy 9 - - - -
 
Date/Time
EST
Temp

°C
Wind Pressure Rain
since 9am
mm
Weather Cloud Vis
km
Sea
Height
m
Swell
Dir
 
Speed
knots
Gust
knots
hPa Trend Height
m
Period
s
Dir
28/11:51pm 5.6 CALM 0 1 1028.8 - 0.0 - Partly cloudy 9 - - - -
28/11:42pm 5.5 W 1 3 1028.8 - 0.0 - Partly cloudy 9 - - - -
28/11:37pm 6.0 W 2 3 1028.8 - 0.0 - Partly cloudy 9 - - - -
28/11:30pm 6.1 W 2 4 1028.9 - 0.0 - Partly cloudy 5 - - - -
28/11:00pm 5.4 WNW 5 6 1029.0 - 0.0 - Partly cloudy 0.2 - - - -
28/10:30pm 6.5 CALM 0 0 1029.0 - 0.0 - Partly cloudy 0.1 - - - -
28/10:21pm 6.6 CALM 0 0 1029.1 - 0.0 - Partly cloudy 0.2 - - - -
28/10:08pm 6.1 CALM 0 0 1029.1 - 0.0 - Partly cloudy 0.5 - - - -
28/10:00pm 5.8 S 1 3 1029.2 - 0.0 - Partly cloudy 0.5 - - - -
28/09:56pm 6.2 S 2 3 1029.2 - 0.0 - Partly cloudy 0.4 - - - -
28/09:30pm 7.0 CALM 0 0 1029.2 - 0.0 - - 0.3 - - - -
28/09:00pm 7.6 ESE 2 3 1029.1 - 0.0 - - 3 - - - -
28/08:58pm 7.6 ESE 2 3 1029.1 - 0.0 - - 5 - - - -
28/08:30pm 8.5 SSE 3 4 1029.1 - 0.0 - - 10 - - - -
28/08:00pm 8.3 E 2 3 1029.0 - 0.0 - Partly cloudy 10 - - - -
28/07:30pm 9.4 E 3 4 1028.9 - 0.0 - Partly cloudy 10 - - - -
28/07:00pm 9.6 E 5 6 1028.7 - 0.0 - Partly cloudy 10 - - - -
28/06:30pm 10.0 E 7 7 1028.4 - 0.0 - - 10 - - - -
28/06:00pm 10.5 ESE 8 8 1028.3 - 0.0 - - 10 - - - -
28/05:30pm 12.1 ESE 8 9 1028.1 - 0.0 - Partly cloudy 10 - - - -
28/05:00pm 13.3 E 9 11 1027.8 - 0.0 - - 10 - - - -
28/04:30pm 14.1 E 11 13 1027.6 - 0.0 - - 10 - - - -
28/04:00pm 15.4 E 11 13 1027.5 - 0.0 - - 10 - - - -
28/03:30pm 16.5 ESE 8 10 1027.4 - 0.0 - - 10 - - - -
28/03:00pm 16.4 E 7 9 1027.4 F 0.0 Fine Mostly clear 30 - - - -
28/02:30pm 16.3 E 7 9 1027.6 - 0.0 - - 10 - - - -
28/02:00pm 16.1 E 7 9 1027.6 - 0.0 - - 10 - - - -
28/01:30pm 15.7 ENE 7 10 1027.9 - 0.0 - - 10 - - - -
28/01:00pm 15.2 E 6 8 1028.3 - 0.0 - - 10 - - - -
28/12:30pm 14.8 ESE 4 6 1028.8 - 0.0 - - 10 - - - -
28/12:00pm 13.2 E 5 6 1029.2 - 0.0 - - 10 - - - -
28/11:30am 13.0 ESE 3 5 1029.7 - 0.0 - - 10 - - - -
28/11:00am 12.0 NNW 1 4 1030.0 - 0.0 - - 10 - - - -
28/10:30am 11.3 WNW 1 4 1030.2 - 0.0 - - 10 - - - -
28/10:00am 9.7 NW 4 5 1030.5 - 0.0 - - 10 - - - -
28/09:30am 8.0 NW 5 6 1030.6 - 0.0 - Mostly clear 10 - - - -
28/09:14am 7.1 WNW 4 5 1030.6 - 0.0 - Mostly clear 10 - - - -
28/09:00am 6.4 WNW 4 5 1030.7 R 0.4 Fog patches Partly cloudy 1 - - - -
28/08:30am 5.3 NW 4 4 1030.6 - 0.4 Fog Cloudy 0.3 - - - -
28/08:00am 4.4 NW 3 4 1030.6 - 0.4 Fog Cloudy 0.3 - - - -
28/07:30am 3.6 WNW 4 5 1030.5 - 0.4 Fog Cloudy 0.3 - - - -
28/07:00am 3.4 WNW 4 5 1030.3 - 0.4 Fog Cloudy 0.2 - - - -
28/06:30am 3.3 WNW 5 5 1029.9 - 0.4 - Cloudy 0.3 - - - -

Other Formats:

Comma delimited format used in spreadsheet applications
http://www.bom.gov.au/fwo/IDV60701/IDV60701.94907.axf

JavaScript Object Notation format (JSON) in row-major order
http://www.bom.gov.au/fwo/IDV60701/IDV60701.94907.json